Vacaville, California
Current Conditions -  °F | °C
As of 2:53 PM on Friday 28 Nov 2014 (Local Time) from KVCB Reporting Station
Clear Clear  
Wind Chill: 68°   Ceiling: Unl
Heat Index: 68°   Visibility: 10mi
Dew Point: 49°   Wind: 3mph
Humidity: 50%   Direction: 200°SSW
Pressure: 29.9"   Gusts: NA
Location:  38.35°N, 121.99°W
Report Text: KVCB 282253Z AUTO 20003KT 10SM CLR 20/09 A2990 RMK AO2 SLP125 T02000094 TSNO
Loading
Personal Weather Stations






























Interactive Weather Map New forecast layout! Learn more

10-Day Weather Forecast

Advertisements
Track Severe Weather on mobile